createdAt,value
2019-06-26T00:01:28.145Z,10.10
2019-06-26T00:03:53.132Z,11.18
2019-06-26T00:06:18.156Z,12.25
2019-06-26T00:08:43.259Z,10.05
2019-06-26T00:11:08.293Z,10.78
2019-06-26T00:13:33.272Z,9.90
2019-06-26T00:15:58.294Z,11.05
2019-06-26T00:18:23.431Z,11.48
2019-06-26T00:20:48.395Z,12.03
2019-06-26T00:23:13.491Z,11.12
2019-06-26T00:25:38.531Z,10.43
2019-06-26T00:28:03.596Z,9.73
2019-06-26T00:30:28.583Z,9.65
2019-06-26T00:32:53.617Z,13.00
2019-06-26T00:35:18.695Z,12.43
2019-06-26T00:37:43.742Z,13.05
2019-06-26T00:40:10.000Z,11.25
2019-06-26T00:42:35.117Z,11.25
2019-06-26T00:45:00.096Z,10.50
2019-06-26T00:47:25.155Z,11.55
2019-06-26T00:49:50.154Z,10.72
2019-06-26T00:52:15.132Z,14.38
2019-06-26T00:54:40.096Z,10.40
2019-06-26T00:57:05.161Z,9.83
2019-06-26T00:59:30.374Z,9.40
2019-06-26T01:01:55.367Z,11.90
2019-06-26T01:04:25.219Z,11.50
2019-06-26T01:06:50.210Z,13.15
2019-06-26T01:09:15.663Z,12.93
2019-06-26T01:11:40.755Z,11.47
2019-06-26T01:14:05.858Z,10.85
2019-06-26T01:16:30.891Z,10.70
2019-06-26T01:18:55.867Z,9.60
2019-06-26T01:21:20.906Z,12.13
2019-06-26T01:23:46.011Z,11.80
2019-06-26T01:26:11.052Z,13.18
2019-06-26T01:28:35.962Z,10.00
2019-06-26T01:31:00.983Z,11.18
2019-06-26T01:33:25.963Z,10.10
2019-06-26T01:35:50.927Z,10.15
2019-06-26T01:38:15.844Z,11.60
2019-06-26T01:40:40.889Z,17.20
2019-06-26T01:43:05.967Z,9.75
2019-06-26T01:45:30.927Z,12.23
2019-06-26T01:47:56.951Z,12.53
2019-06-26T01:50:21.983Z,10.67
2019-06-26T01:52:46.899Z,9.70
2019-06-26T01:55:12.115Z,10.43
2019-06-26T01:57:37.186Z,11.90
2019-06-26T02:00:02.277Z,12.15
2019-06-26T02:02:28.818Z,10.70
2019-06-26T02:04:53.911Z,12.63
2019-06-26T02:07:19.248Z,11.17
2019-06-26T02:09:45.184Z,12.18
2019-06-26T02:12:10.182Z,12.67
2019-06-26T02:14:35.158Z,11.08
2019-06-26T02:17:00.200Z,12.73
2019-06-26T02:19:25.175Z,10.43
2019-06-26T02:21:50.142Z,10.10
2019-06-26T02:24:15.294Z,14.40
2019-06-26T02:26:40.247Z,15.47
2019-06-26T02:29:05.239Z,12.47
2019-06-26T02:31:30.276Z,13.55
2019-06-26T02:33:55.336Z,10.93
2019-06-26T02:36:20.364Z,12.93
2019-06-26T02:38:45.271Z,12.03
2019-06-26T02:41:10.319Z,12.67
2019-06-26T02:43:35.391Z,14.23
2019-06-26T02:46:00.427Z,11.87
2019-06-26T02:48:25.408Z,10.43
2019-06-26T02:50:50.451Z,10.63
2019-06-26T02:53:15.506Z,11.90
2019-06-26T02:55:40.394Z,13.37
2019-06-26T02:58:05.468Z,11.83
2019-06-26T03:00:30.503Z,12.73
2019-06-26T03:02:55.567Z,10.97
2019-06-26T03:05:20.459Z,11.43
2019-06-26T03:07:45.429Z,10.37
2019-06-26T03:10:11.114Z,10.10
2019-06-26T03:12:36.073Z,12.70
2019-06-26T03:15:08.883Z,11.70
2019-06-26T03:17:27.722Z,13.80
2019-06-26T03:19:52.774Z,10.33
2019-06-26T03:22:17.855Z,14.10
2019-06-26T03:24:42.890Z,13.43
2019-06-26T03:27:09.178Z,11.87
2019-06-26T03:29:34.387Z,14.23
2019-06-26T03:31:59.429Z,10.70
2019-06-26T03:34:24.487Z,10.53
2019-06-26T03:36:49.482Z,14.43
2019-06-26T03:39:14.564Z,13.33
2019-06-26T03:41:39.536Z,13.20
2019-06-26T03:44:04.597Z,12.20
2019-06-26T03:46:29.669Z,11.80
2019-06-26T03:48:54.792Z,13.10
2019-06-26T03:51:19.838Z,11.40
2019-06-26T03:53:44.816Z,14.17
2019-06-26T03:56:09.900Z,13.03
2019-06-26T03:58:34.916Z,13.57
2019-06-26T04:00:59.915Z,11.93
2019-06-26T04:03:24.807Z,14.73
2019-06-26T04:05:49.867Z,12.28
2019-06-26T04:08:14.832Z,11.45
2019-06-26T04:10:43.065Z,15.10
2019-06-26T04:13:06.413Z,12.87
2019-06-26T04:15:41.263Z,12.10
2019-06-26T04:17:58.230Z,12.57
2019-06-26T04:20:23.275Z,15.28
2019-06-26T04:22:48.334Z,13.95
2019-06-26T04:25:13.460Z,13.75
2019-06-26T04:27:38.498Z,12.97
2019-06-26T04:30:04.968Z,14.98
2019-06-26T04:32:29.856Z,13.08
2019-06-26T04:34:54.843Z,15.40
2019-06-26T04:37:19.881Z,13.22
2019-06-26T04:39:44.895Z,12.23
2019-06-26T04:42:09.946Z,16.17
2019-06-26T04:44:35.194Z,13.38
2019-06-26T04:47:00.210Z,15.28
2019-06-26T04:49:25.099Z,13.65
2019-06-26T04:51:50.082Z,12.35
2019-06-26T04:54:15.946Z,15.25
2019-06-26T04:56:40.860Z,13.68
2019-06-26T04:59:05.825Z,17.07
2019-06-26T05:01:30.815Z,13.58
2019-06-26T05:03:55.790Z,16.55
2019-06-26T05:06:20.863Z,16.73
2019-06-26T05:08:45.942Z,23.67
2019-06-26T05:11:12.751Z,28.50
2019-06-26T05:13:37.562Z,14.45
2019-06-26T05:16:14.155Z,17.82
2019-06-26T05:18:29.311Z,22.65
2019-06-26T05:20:54.353Z,16.07
2019-06-26T05:23:19.330Z,20.37
2019-06-26T05:25:44.541Z,26.40
2019-06-26T05:28:09.570Z,23.40
2019-06-26T05:30:34.648Z,17.20
2019-06-26T05:32:59.601Z,20.65
2019-06-26T05:35:24.650Z,25.20
2019-06-26T05:37:49.717Z,27.27
2019-06-26T05:40:15.158Z,30.55
2019-06-26T05:42:40.234Z,19.12
2019-06-26T05:45:05.726Z,17.10
2019-06-26T05:47:30.835Z,25.80
2019-06-26T05:49:56.785Z,26.55
2019-06-26T05:52:21.743Z,25.08
2019-06-26T05:54:46.786Z,32.95
2019-06-26T05:57:11.779Z,25.05
2019-06-26T05:59:36.678Z,27.67
2019-06-26T06:02:01.738Z,30.48
2019-06-26T06:04:26.778Z,31.42
2019-06-26T06:06:51.862Z,21.00
2019-06-26T06:09:16.889Z,17.85
2019-06-26T06:11:41.992Z,17.20
2019-06-26T06:14:06.997Z,17.05
2019-06-26T06:16:46.456Z,16.60
2019-06-26T06:18:58.732Z,18.23
2019-06-26T06:21:23.771Z,16.95
2019-06-26T06:23:48.835Z,17.12
2019-06-26T06:26:13.947Z,16.25
2019-06-26T06:28:38.863Z,15.65
2019-06-26T06:31:03.903Z,21.37
2019-06-26T06:33:28.897Z,16.77
2019-06-26T06:35:54.130Z,16.00
2019-06-26T06:38:19.033Z,15.32
2019-06-26T06:40:44.062Z,15.78
2019-06-26T06:43:08.978Z,16.87
2019-06-26T06:45:34.014Z,18.20
2019-06-26T06:47:59.016Z,14.05
2019-06-26T06:50:24.083Z,15.80
2019-06-26T06:52:48.973Z,14.98
2019-06-26T06:55:14.218Z,15.43
2019-06-26T06:57:39.495Z,15.35
2019-06-26T07:00:05.674Z,14.90
2019-06-26T07:02:30.891Z,16.37
2019-06-26T07:04:55.822Z,13.88
2019-06-26T07:07:21.049Z,13.53
2019-06-26T07:09:46.408Z,12.60
2019-06-26T07:12:11.611Z,13.40
2019-06-26T07:14:37.074Z,15.78
2019-06-26T07:17:02.063Z,11.90
2019-06-26T07:19:28.245Z,15.68
2019-06-26T07:21:53.583Z,11.83
2019-06-26T07:24:18.635Z,12.82
2019-06-26T07:26:46.451Z,12.13
2019-06-26T07:29:11.940Z,14.78
2019-06-26T07:31:38.718Z,10.00
2019-06-26T07:34:04.051Z,10.25
2019-06-26T07:36:29.055Z,10.30
2019-06-26T07:38:54.328Z,11.18
2019-06-26T07:41:19.363Z,13.93
2019-06-26T07:43:44.340Z,8.90
2019-06-26T07:46:09.350Z,12.28
2019-06-26T07:48:34.434Z,10.72
2019-06-26T07:50:59.479Z,8.80
2019-06-26T07:53:24.779Z,10.30
2019-06-26T07:55:49.825Z,9.15
2019-06-26T07:58:15.078Z,9.60
2019-06-26T08:00:40.882Z,8.40
2019-06-26T08:03:06.450Z,15.78
2019-06-26T08:05:31.528Z,12.60
2019-06-26T08:07:56.734Z,14.85
2019-06-26T08:10:22.772Z,9.98
2019-06-26T08:12:48.007Z,8.65
2019-06-26T08:15:13.616Z,9.43
2019-06-26T08:17:38.588Z,10.13
2019-06-26T08:20:03.911Z,10.55
2019-06-26T08:22:30.175Z,9.88
2019-06-26T08:24:55.167Z,8.80
2019-06-26T08:27:20.259Z,12.10
2019-06-26T08:29:45.254Z,11.45
2019-06-26T08:32:10.490Z,9.83
2019-06-26T08:34:35.470Z,9.00
2019-06-26T08:37:00.437Z,8.90
2019-06-26T08:39:25.750Z,12.82
2019-06-26T08:41:51.312Z,8.38
2019-06-26T08:44:16.368Z,9.55
2019-06-26T08:46:41.626Z,11.18
2019-06-26T08:49:21.089Z,11.03
2019-06-26T08:51:33.350Z,8.98
2019-06-26T08:53:58.370Z,9.03
2019-06-26T08:56:26.418Z,8.55
2019-06-26T08:58:51.718Z,10.93
2019-06-26T09:01:16.715Z,8.18
2019-06-26T09:03:42.236Z,9.95
2019-06-26T09:06:09.111Z,10.13
2019-06-26T09:08:34.039Z,8.73
2019-06-26T09:10:58.991Z,8.70
2019-06-26T09:13:23.963Z,10.75
2019-06-26T09:15:50.057Z,8.95
2019-06-26T09:18:15.189Z,11.53
2019-06-26T09:20:41.107Z,8.48
2019-06-26T09:23:06.192Z,8.93
2019-06-26T09:25:31.448Z,7.40
2019-06-26T09:27:56.402Z,10.13
2019-06-26T09:30:22.839Z,10.93
2019-06-26T09:32:47.802Z,8.08
2019-06-26T09:35:13.123Z,11.35
2019-06-26T09:37:38.208Z,7.85
2019-06-26T09:40:03.155Z,6.58
2019-06-26T09:42:28.755Z,9.40
2019-06-26T09:44:53.710Z,8.18
2019-06-26T09:47:18.675Z,6.65
2019-06-26T09:49:43.663Z,6.45
2019-06-26T09:52:09.118Z,6.70
2019-06-26T09:54:34.030Z,11.10
2019-06-26T09:56:58.918Z,10.95
2019-06-26T09:59:24.507Z,8.75
2019-06-26T10:01:49.640Z,8.18
2019-06-26T10:04:15.114Z,6.80
2019-06-26T10:06:40.087Z,8.50
2019-06-26T10:09:07.030Z,7.97
2019-06-26T10:11:32.004Z,7.47
2019-06-26T10:13:56.970Z,8.15
2019-06-26T10:16:23.271Z,13.25
2019-06-26T10:18:48.494Z,12.03
2019-06-26T10:21:14.089Z,12.80
2019-06-26T10:23:39.118Z,7.15
2019-06-26T10:26:04.272Z,6.97
2019-06-26T10:28:29.428Z,6.35
2019-06-26T10:30:56.510Z,8.73
2019-06-26T10:33:21.623Z,9.85
2019-06-26T10:35:46.678Z,7.30
2019-06-26T10:38:11.822Z,7.92
2019-06-26T10:40:36.857Z,8.35
2019-06-26T10:43:01.923Z,11.68
2019-06-26T10:45:26.954Z,12.20
2019-06-26T10:47:51.872Z,10.82
2019-06-26T10:50:17.292Z,6.70
2019-06-26T10:52:42.327Z,6.97
2019-06-26T10:55:07.589Z,8.13
2019-06-26T10:57:32.635Z,7.87
2019-06-26T10:59:58.647Z,7.08
2019-06-26T11:02:23.694Z,7.22
2019-06-26T11:04:48.647Z,11.03
2019-06-26T11:07:13.613Z,10.48
2019-06-26T11:09:38.595Z,10.15
2019-06-26T11:12:03.665Z,9.20
2019-06-26T11:14:28.656Z,8.63
2019-06-26T11:16:54.548Z,8.13
2019-06-26T11:19:19.596Z,10.53
2019-06-26T11:21:44.656Z,7.05
2019-06-26T11:24:09.639Z,7.90
2019-06-26T11:26:35.680Z,9.93
2019-06-26T11:29:00.678Z,7.40
2019-06-26T11:31:25.666Z,9.93
2019-06-26T11:33:50.823Z,6.40
2019-06-26T11:36:16.041Z,6.67
2019-06-26T11:38:41.087Z,7.85
2019-06-26T11:41:06.118Z,6.85
2019-06-26T11:43:31.203Z,11.88
2019-06-26T11:45:56.168Z,8.95
2019-06-26T11:48:21.145Z,8.30
2019-06-26T11:50:46.022Z,7.12
2019-06-26T11:53:11.107Z,12.18
2019-06-26T11:55:36.145Z,10.03
2019-06-26T11:58:15.621Z,7.33
2019-06-26T12:00:47.849Z,11.85
2019-06-26T12:03:24.305Z,12.23
2019-06-26T12:06:18.315Z,11.90
2019-06-26T12:08:46.116Z,8.53
2019-06-26T12:11:21.338Z,6.35
2019-06-26T12:13:46.349Z,8.38
2019-06-26T12:16:11.390Z,10.10
2019-06-26T12:18:36.406Z,8.33
2019-06-26T12:21:01.412Z,6.33
2019-06-26T12:23:26.455Z,7.90
2019-06-26T12:25:51.598Z,9.68
2019-06-26T12:28:16.489Z,10.85
2019-06-26T12:30:41.588Z,6.53
2019-06-26T12:33:06.687Z,6.53
2019-06-26T12:35:31.786Z,8.78
2019-06-26T12:37:56.799Z,9.48
2019-06-26T12:40:21.831Z,7.55
2019-06-26T12:42:46.851Z,9.48
2019-06-26T12:45:12.357Z,6.70
2019-06-26T12:47:37.390Z,10.60
2019-06-26T12:50:02.914Z,10.25
2019-06-26T12:52:27.954Z,9.05
2019-06-26T12:54:52.926Z,10.05
2019-06-26T12:57:17.897Z,8.00
2019-06-26T12:59:56.935Z,11.30
2019-06-26T13:02:10.678Z,8.40
2019-06-26T13:04:35.554Z,6.47
2019-06-26T13:07:00.514Z,5.47
2019-06-26T13:09:25.493Z,9.03
2019-06-26T13:11:50.453Z,11.33
2019-06-26T13:14:15.534Z,6.60
2019-06-26T13:16:40.562Z,10.70
2019-06-26T13:19:05.622Z,8.93
2019-06-26T13:21:30.623Z,9.20
2019-06-26T13:23:55.642Z,10.45
2019-06-26T13:26:21.103Z,7.53
2019-06-26T13:28:47.615Z,7.20
2019-06-26T13:31:12.634Z,7.12
2019-06-26T13:33:37.642Z,9.33
2019-06-26T13:36:02.672Z,9.20
2019-06-26T13:38:27.706Z,7.83
2019-06-26T13:40:52.783Z,8.38
2019-06-26T13:43:17.822Z,12.50
2019-06-26T13:45:43.024Z,7.45
2019-06-26T13:48:08.002Z,8.45
2019-06-26T13:50:33.859Z,7.67
2019-06-26T13:52:58.771Z,10.15
2019-06-26T13:55:23.802Z,9.35
2019-06-26T13:57:48.846Z,7.85
2019-06-26T14:00:14.234Z,8.40
2019-06-26T14:02:39.315Z,10.78
2019-06-26T14:05:04.562Z,7.30
2019-06-26T14:07:29.471Z,9.63
2019-06-26T14:09:54.436Z,9.53
2019-06-26T14:12:19.583Z,10.65
2019-06-26T14:14:56.678Z,9.63
2019-06-26T14:17:11.058Z,10.08
2019-06-26T14:19:36.107Z,9.40
2019-06-26T14:22:01.046Z,14.13
2019-06-26T14:24:26.175Z,14.38
2019-06-26T14:26:51.218Z,8.48
2019-06-26T14:29:20.796Z,9.53
2019-06-26T14:31:43.040Z,9.30
2019-06-26T14:34:07.990Z,8.13
2019-06-26T14:36:33.075Z,9.55
2019-06-26T14:38:58.103Z,8.33
2019-06-26T14:41:22.987Z,11.85
2019-06-26T14:43:48.014Z,10.32
2019-06-26T14:46:15.234Z,10.85
2019-06-26T14:48:40.410Z,6.45
2019-06-26T14:51:05.491Z,11.80
2019-06-26T14:53:30.431Z,9.35
2019-06-26T14:55:55.495Z,7.00
2019-06-26T14:58:20.450Z,9.73
2019-06-26T15:00:45.454Z,14.68
2019-06-26T15:03:10.415Z,6.97
2019-06-26T15:05:35.458Z,8.75
2019-06-26T15:08:00.579Z,11.60
2019-06-26T15:10:25.608Z,9.58
2019-06-26T15:12:50.615Z,8.70
2019-06-26T15:15:15.673Z,10.98
2019-06-26T15:17:40.705Z,12.43
2019-06-26T15:20:06.078Z,8.05
2019-06-26T15:22:31.117Z,6.25
2019-06-26T15:24:56.260Z,14.83
2019-06-26T15:27:21.215Z,9.35
2019-06-26T15:29:46.240Z,9.55
2019-06-26T15:32:11.462Z,7.95
2019-06-26T15:34:36.445Z,10.68
2019-06-26T15:37:01.495Z,9.60
2019-06-26T15:39:26.403Z,8.63
2019-06-26T15:41:51.435Z,9.80
2019-06-26T15:44:16.399Z,10.88
2019-06-26T15:46:41.388Z,8.68
2019-06-26T15:49:06.698Z,11.33
2019-06-26T15:51:31.780Z,10.40
2019-06-26T15:53:59.925Z,8.80
2019-06-26T15:56:27.237Z,6.95
2019-06-26T15:58:52.244Z,12.07
2019-06-26T16:01:17.880Z,11.25
2019-06-26T16:03:42.911Z,8.98
2019-06-26T16:06:07.961Z,7.20
2019-06-26T16:08:34.942Z,7.28
2019-06-26T16:11:00.092Z,7.40
2019-06-26T16:13:24.975Z,9.30
2019-06-26T16:15:50.025Z,6.60
2019-06-26T16:18:29.368Z,7.62
2019-06-26T16:20:54.607Z,6.25
2019-06-26T16:23:19.567Z,8.73
2019-06-26T16:25:44.563Z,14.05
2019-06-26T16:28:09.514Z,7.95
2019-06-26T16:30:34.552Z,7.62
2019-06-26T16:32:59.636Z,6.62
2019-06-26T16:35:24.728Z,6.92
2019-06-26T16:37:49.644Z,5.58
2019-06-26T16:40:15.568Z,6.95
2019-06-26T16:42:40.543Z,11.05
2019-06-26T16:45:06.333Z,6.80
2019-06-26T16:47:31.475Z,10.85
2019-06-26T16:49:56.467Z,7.90
2019-06-26T16:52:21.516Z,5.83
2019-06-26T16:54:46.411Z,7.35
2019-06-26T16:57:11.516Z,10.60
2019-06-26T16:59:36.482Z,7.80
2019-06-26T17:02:01.542Z,8.28
2019-06-26T17:04:26.607Z,6.75
2019-06-26T17:06:51.646Z,8.75
2019-06-26T17:09:16.670Z,8.35
2019-06-26T17:11:41.731Z,9.58
2019-06-26T17:14:06.860Z,8.78
2019-06-26T17:16:32.099Z,7.25
2019-06-26T17:18:57.136Z,9.10
2019-06-26T17:21:22.175Z,6.17
2019-06-26T17:23:47.072Z,10.15
2019-06-26T17:26:12.031Z,5.28
2019-06-26T17:28:37.159Z,6.28
2019-06-26T17:31:02.242Z,6.45
2019-06-26T17:33:27.377Z,7.05
2019-06-26T17:35:52.373Z,4.25
2019-06-26T17:38:17.339Z,6.92
2019-06-26T17:40:42.503Z,5.92
2019-06-26T17:43:12.336Z,3.45
2019-06-26T17:45:34.443Z,2.60
2019-06-26T17:47:59.412Z,5.28
2019-06-26T17:50:24.448Z,6.05
2019-06-26T17:52:49.515Z,4.75
2019-06-26T17:55:14.678Z,4.00
2019-06-26T17:57:39.643Z,3.40
2019-06-26T18:00:07.131Z,5.05
2019-06-26T18:02:32.139Z,6.75
2019-06-26T18:04:57.157Z,5.78
2019-06-26T18:07:22.154Z,5.35
2019-06-26T18:09:47.188Z,5.67
2019-06-26T18:12:12.151Z,8.63
2019-06-26T18:14:38.079Z,5.75
2019-06-26T18:17:03.322Z,8.00
2019-06-26T18:19:28.292Z,10.82
2019-06-26T18:21:53.262Z,9.88
2019-06-26T18:24:18.376Z,7.67
2019-06-26T18:26:43.411Z,9.33
2019-06-26T18:29:09.432Z,11.25
2019-06-26T18:31:34.534Z,8.23
2019-06-26T18:33:59.555Z,9.00
2019-06-26T18:36:27.403Z,5.35
2019-06-26T18:38:52.471Z,5.80
2019-06-26T18:41:18.787Z,5.62
2019-06-26T18:43:43.744Z,4.95
2019-06-26T18:46:08.795Z,7.90
2019-06-26T18:48:33.768Z,11.55
2019-06-26T18:50:58.735Z,6.75
2019-06-26T18:53:23.899Z,20.00
2019-06-26T18:55:48.944Z,12.53
2019-06-26T18:58:13.858Z,15.75
2019-06-26T19:00:39.005Z,21.75
2019-06-26T19:03:04.091Z,21.23
2019-06-26T19:05:29.064Z,29.87
2019-06-26T19:07:54.123Z,12.93
2019-06-26T19:10:19.160Z,6.20
2019-06-26T19:12:44.256Z,8.98
2019-06-26T19:15:09.539Z,7.55
2019-06-26T19:17:34.587Z,6.40
2019-06-26T19:19:59.655Z,6.97
2019-06-26T19:22:24.687Z,8.48
2019-06-26T19:24:49.788Z,6.85
2019-06-26T19:27:14.828Z,7.95
2019-06-26T19:29:40.275Z,8.93
2019-06-26T19:32:05.308Z,8.03
2019-06-26T19:34:30.496Z,6.10
2019-06-26T19:36:56.774Z,16.12
2019-06-26T19:39:21.926Z,18.92
2019-06-26T19:41:47.011Z,26.40
2019-06-26T19:44:11.995Z,10.78
2019-06-26T19:46:37.120Z,18.57
2019-06-26T19:49:02.176Z,16.90
2019-06-26T19:51:27.248Z,16.48
2019-06-26T19:53:52.234Z,6.25
2019-06-26T19:56:20.103Z,13.88
2019-06-26T19:58:43.839Z,17.85
2019-06-26T20:01:08.816Z,9.93
2019-06-26T20:03:33.855Z,11.68
2019-06-26T20:05:58.918Z,18.60
2019-06-26T20:08:23.842Z,13.15
2019-06-26T20:10:48.956Z,19.80
2019-06-26T20:13:13.844Z,19.75
2019-06-26T20:15:38.983Z,13.58
2019-06-26T20:18:04.475Z,5.03
2019-06-26T20:20:30.564Z,6.95
2019-06-26T20:22:56.157Z,7.47
2019-06-26T20:25:21.443Z,7.47
2019-06-26T20:27:46.489Z,8.33
2019-06-26T20:30:13.291Z,8.68
2019-06-26T20:32:38.533Z,13.98
2019-06-26T20:35:03.893Z,5.90
2019-06-26T20:37:28.944Z,9.85
2019-06-26T20:39:53.831Z,7.30
2019-06-26T20:42:18.831Z,7.90
2019-06-26T20:44:43.875Z,6.70
2019-06-26T20:47:08.839Z,9.58
2019-06-26T20:49:33.910Z,7.70
2019-06-26T20:51:59.967Z,6.80
2019-06-26T20:54:25.029Z,9.70
2019-06-26T20:56:49.975Z,7.47
2019-06-26T20:59:15.180Z,9.03
2019-06-26T21:01:40.260Z,8.65
2019-06-26T21:04:05.239Z,8.88
2019-06-26T21:06:30.235Z,8.08
2019-06-26T21:08:55.179Z,8.75
2019-06-26T21:11:21.017Z,7.67
2019-06-26T21:13:45.923Z,7.80
2019-06-26T21:16:10.875Z,9.93
2019-06-26T21:18:35.872Z,7.70
2019-06-26T21:21:00.829Z,6.92
2019-06-26T21:23:25.712Z,7.08
2019-06-26T21:25:50.754Z,7.33
2019-06-26T21:28:16.778Z,8.23
2019-06-26T21:30:41.731Z,7.90
2019-06-26T21:33:06.703Z,7.95
2019-06-26T21:35:31.743Z,6.42
2019-06-26T21:37:56.927Z,7.50
2019-06-26T21:40:21.882Z,6.12
2019-06-26T21:42:46.923Z,6.40
2019-06-26T21:45:11.967Z,7.25
2019-06-26T21:47:36.931Z,7.40
2019-06-26T21:50:01.993Z,6.03
2019-06-26T21:52:26.951Z,5.55
2019-06-26T21:54:51.907Z,4.70
2019-06-26T21:57:34.617Z,4.53
2019-06-26T22:00:18.758Z,5.55
2019-06-26T22:03:01.496Z,4.92
2019-06-26T22:05:28.243Z,5.75
2019-06-26T22:08:09.872Z,3.37
2019-06-26T22:10:36.741Z,5.55
2019-06-26T22:13:01.703Z,6.85
2019-06-26T22:15:26.965Z,8.73
2019-06-26T22:17:52.156Z,5.70
2019-06-26T22:20:17.427Z,4.67
2019-06-26T22:22:42.463Z,7.12
2019-06-26T22:25:07.938Z,7.97
2019-06-26T22:27:32.921Z,7.40
2019-06-26T22:29:57.975Z,3.42
2019-06-26T22:32:23.018Z,8.03
2019-06-26T22:34:48.239Z,8.73
2019-06-26T22:37:14.627Z,5.87
2019-06-26T22:39:39.597Z,5.60
2019-06-26T22:42:04.682Z,4.35
2019-06-26T22:44:29.723Z,6.87
2019-06-26T22:46:54.782Z,8.30
2019-06-26T22:49:19.763Z,7.22
2019-06-26T22:51:44.807Z,7.15
2019-06-26T22:54:09.949Z,5.70
2019-06-26T22:56:35.027Z,6.85
2019-06-26T22:59:00.991Z,6.03
2019-06-26T23:01:26.028Z,12.60
2019-06-26T23:03:50.991Z,7.25
2019-06-26T23:06:15.995Z,7.58
2019-06-26T23:08:40.887Z,8.33
2019-06-26T23:11:05.999Z,8.25
2019-06-26T23:13:31.085Z,7.87
2019-06-26T23:15:56.035Z,6.05
2019-06-26T23:18:21.450Z,10.13
2019-06-26T23:20:46.996Z,11.20
2019-06-26T23:23:12.116Z,6.60
2019-06-26T23:25:37.163Z,6.40
2019-06-26T23:28:02.040Z,6.85
2019-06-26T23:30:27.088Z,9.18
2019-06-26T23:32:51.971Z,6.65
2019-06-26T23:35:17.011Z,6.80
2019-06-26T23:37:42.232Z,5.40
2019-06-26T23:40:07.311Z,5.60
2019-06-26T23:42:32.291Z,9.28
2019-06-26T23:44:57.245Z,8.75
2019-06-26T23:47:22.198Z,8.40
2019-06-26T23:49:47.171Z,10.93
2019-06-26T23:52:12.416Z,8.58
2019-06-26T23:54:38.380Z,7.08
2019-06-26T23:57:03.428Z,8.05
2019-06-26T23:59:28.456Z,7.97
